Selenka — 9HVO9 — position and weather

sailwx.info

Track history (hours):
 
Tides and Currents Weather Stations Pressure Air Temp Water Temp Dewpoint Dewpoint Depression Visibility Wind Speed Wind Dir Waves Ship Positions

Selenka

Last reported at 2018-Apr-22 14:20 UTC. Time now 2018-Apr-25 12:36 UTC.
Position N 25°30' W 079°35'.

Length 132 m; draft 8.9 m.

Type: Ship (hazmat cat B). MMSI: 249598000.

Date/timePositionNaut miles runAvg speedWind from/ knotsBaromVisibWave heightAir tempDewpointWater temp
2018-Apr-22 14:20N 25°30' W 079°35'3 8.5
2018-Apr-22 14:00N 25°33' W 079°34'4 8.5
2018-Apr-22 13:30N 25°37' W 079°33'5 8.6
2018-Apr-22 12:57N 25°42' W 079°32'4 8.9
2018-Apr-22 12:30N 25°46' W 079°31'5 9.2
2018-Apr-22 12:00N 25°51' W 079°30'5 9.3
2018-Apr-22 11:30N 25°55' W 079°30'9 9.9
2018-Apr-22 10:32N 26°05' W 079°28'0 9.9
2018-Apr-22 10:30N 26°05' W 079°28'510.1
2018-Apr-22 10:00N 26°10' W 079°27'510.3
2018-Apr-22 09:29N 26°15' W 079°24'  
Track history (hours):
 
Tides and Currents Weather Stations Pressure Air Temp Water Temp Dewpoint Dewpoint Depression Visibility Wind Speed Wind Dir Waves Ship Positions

Selenka

Last reported at 2018-Apr-22 14:20 UTC. Time now 2018-Apr-25 12:36 UTC.
Position N 25°30' W 079°35'.

Length 132 m; draft 8.9 m.

Type: Ship (hazmat cat B). MMSI: 249598000.

Date/timePositionNaut miles runAvg speedWind from/ knotsBaromVisibWave heightAir tempDewpointWater temp
2018-Apr-22 14:20N 25°30' W 079°35'3 8.5
2018-Apr-22 14:00N 25°33' W 079°34'4 8.5
2018-Apr-22 13:30N 25°37' W 079°33'5 8.6
2018-Apr-22 12:57N 25°42' W 079°32'4 8.9
2018-Apr-22 12:30N 25°46' W 079°31'5 9.2
2018-Apr-22 12:00N 25°51' W 079°30'5 9.3
2018-Apr-22 11:30N 25°55' W 079°30'9 9.9
2018-Apr-22 10:32N 26°05' W 079°28'0 9.9
2018-Apr-22 10:30N 26°05' W 079°28'510.1
2018-Apr-22 10:00N 26°10' W 079°27'510.3
2018-Apr-22 09:29N 26°15' W 079°24'  

Dump ship's entire track history